Terminal Aerodrome Forecast
Issued by NWS Tampa Bay Area, FL

Current Version | Previous Version | Text Only | Print | Product List | Glossary On
Versions: 1 2 3 4 5 6 7 8 9 10 11 12 13 14 15 16 17 18 19 20 21 22 23 24 25 26 27 28 29
000
FTUS42 KTBW 312056 AAA
TAFTPA
TAF AMD
KTPA 312056Z 3121/0118 20009KT 6SM RA VCTS SCT006 BKN030CB OVC090
      TEMPO 3121/3124 VRB15G25KT 2SM TSRA BR BKN006CB
     FM010000 16006KT 6SM -RA SCT008 OVC025
     FM010600 14008KT 6SM -RA SCT008 BKN030 OVC090
     FM011300 17012G20KT 6SM -RA FEW010 BKN025 OVC080=

USA.gov is the U.S. government's official web portal to all federal, state and local government web resources and services.